Saturday, January 19, 2019, 12:12 AM EST
Back to Local

KILG, Wilmington New Castle Co

Location: New Castle, DE, United States Lat: 39.667
Local Time: 12:12 AM EST ( 5:12 GMT) Lon: -75.6
Time Zone: US/Eastern Elev: 78 ft

Show me the last for .
Show Decoded

2019-01-18 23:51 METAR KILG 190451Z 33003KT 5SM BR OVC050 02/01 A3021 RMK AO2 SLP231 T00170006
                 400391011 =
2019-01-18 22:51 METAR KILG 190351Z 26003KT 5SM BR OVC050 02/01 A3022 RMK AO2 SLP233 T00170006 =
2019-01-18 21:51 METAR KILG 190251Z 00000KT 5SM BR SCT025 OVC055 01/00 A3020 RMK AO2 SLP227
                 T00110000 51018 =
2019-01-18 21:04 METAR KILG 190204Z 24006KT 5SM BR OVC028 02/00 A3019 RMK AO2 T00170000 =
2019-01-18 20:51 METAR KILG 190151Z 23005KT 5SM BR OVC030 02/00 A3018 RMK AO2 SLP222 T00170000 =
2019-01-18 19:51 METAR KILG 190051Z 00000KT 6SM BR OVC060 02/00 A3017 RMK AO2 SLP217 T00170000 =
2019-01-18 18:51 METAR KILG 182351Z 29003KT 6SM BR CLR 01/M01 A3015 RMK AO2 SLP209 T00111011
                 10039 20011 53016 =
2019-01-18 17:51 METAR KILG 182251Z 32003KT 7SM CLR 02/M01 A3012 RMK AO2 SLP201 T00171006 =
2019-01-18 16:51 METAR KILG 182151Z 29005KT 6SM HZ SCT050 02/M01 A3011 RMK AO2 SLP197 T00221006 =
2019-01-18 16:07 METAR KILG 182107Z 30008KT 7SM SCT019 03/00 A3010 RMK AO2 T00330000 =
2019-01-18 15:51 METAR KILG 182051Z 29007KT 8SM BKN019 04/00 A3010 RMK AO2 SLP193 T00390000 53004
                 =
2019-01-18 14:51 METAR KILG 181951Z 27005KT 10SM OVC016 03/01 A3009 RMK AO2 SLP189 T00330006 =
2019-01-18 14:14 METAR KILG 181914Z 28005KT 10SM OVC015 03/01 A3007 RMK AO2 T00330006 =
2019-01-18 13:51 METAR KILG 181851Z 26005KT 6SM HZ OVC013 03/01 A3007 RMK AO2 SLP183 T00330006 =
2019-01-18 13:38 METAR KILG 181838Z 29004KT 6SM HZ BKN008 OVC013 03/01 A3007 RMK AO2 T00330006 =
2019-01-18 13:12 METAR KILG 181812Z 28004KT 4SM BR BKN010 OVC017 03/01 A3008 RMK AO2 CIG 008V012
                 T00330011 =
2019-01-18 12:51 METAR KILG 181751Z 25005KT 5SM BR OVC007 03/01 A3009 RMK AO2 CIG 006V011 SLP189
                 60000 T00280011 10028 21006 58012 =
2019-01-18 11:51 METAR KILG 181651Z 00000KT 3SM BR OVC005 02/01 A3011 RMK AO2 SLP198 T00220006 =
2019-01-18 11:04 METAR KILG 181604Z 00000KT 3SM BR OVC005 02/00 A3013 RMK AO2 T00170000 =
2019-01-18 10:51 METAR KILG 181551Z 00000KT 2 1/2SM BR OVC004 01/00 A3013 RMK AO2 SLP203
                 T00110000 =
2019-01-18 10:06 METAR KILG 181506Z 00000KT 2SM BR OVC005 01/M01 A3013 RMK AO2 T00061006 =
2019-01-18 09:51 METAR KILG 181451Z 00000KT 1 3/4SM BR OVC005 01/00 A3012 RMK AO2 SLP201 60000
                 T00060000 53008 =
2019-01-18 09:38 METAR KILG 181438Z 03004KT 1 3/4SM BR OVC005 01/M01 A3012 RMK AO2 T00061006 =
2019-01-18 09:24 METAR KILG 181424Z 05003KT 2 1/2SM BR OVC006 01/M01 A3011 RMK AO2 T00061006 =
2019-01-18 09:14 METAR KILG 181414Z 07003KT 3SM BR OVC006 00/M01 A3011 RMK AO2 T00001006 =
2019-01-18 09:04 METAR KILG 181404Z 05005KT 2 1/2SM BR OVC006 00/M01 A3011 RMK AO2 T00001006 =
2019-01-18 08:51 METAR KILG 181351Z 05004KT 3SM BR OVC005 00/M01 A3010 RMK AO2 SNE03 SLP193 P0000
                 T00001006 =
2019-01-18 08:17 METAR KILG 181317Z 06004KT 3SM BR OVC007 00/M01 A3009 RMK AO2 SNE03 P0000
                 T00001011 =
2019-01-18 08:06 METAR KILG 181306Z 07004KT 2 1/2SM BR OVC007 00/M01 A3009 RMK AO2 SNE03 P0000
                 T00001011 =
2019-01-18 07:51 METAR KILG 181251Z 06006KT 1 1/2SM -SN BR OVC006 M01/M01 A3009 RMK AO2 SNB12
                 SLP190 P0000 T10061011 =
2019-01-18 07:35 METAR KILG 181235Z 05004KT 1 1/4SM -SN BR OVC006 M01/M01 A3009 RMK AO2 SNB12
                 P0000 T10061011 =
2019-01-18 07:27 METAR KILG 181227Z 05003KT 2SM -SN BR OVC006 M01/M01 A3009 RMK AO2 SNB12 P0000
                 T10061011 =
2019-01-18 06:51 METAR KILG 181151Z 06004KT 5SM BR OVC006 M01/M02 A3010 RMK AO2 SNE14 CIG 005V009
                 SLP192 P0000 60004 70006 T10061017 11006 21011 55011 =
2019-01-18 06:40 METAR KILG 181140Z 04004KT 5SM BR OVC008 M01/M01 A3010 RMK AO2 SNE14 CIG 005V012
                 P0000 T10061011 =
2019-01-18 05:51 METAR KILG 181051Z AUTO 07004KT 4SM -SN BR FEW005 OVC013 M01/M02 A3008 RMK AO2
                 SLP188 P0001 T10061017 =
2019-01-18 05:49 METAR KILG 181049Z AUTO 07004KT 4SM -SN BR FEW005 OVC013 M01/M02 A3008 RMK AO2
                 P0001 =
2019-01-18 05:17 METAR KILG 181017Z AUTO 08006KT 3SM -SN BR BKN013 OVC020 M01/M02 A3009 RMK AO2
                 P0001 T10111017 =
2019-01-18 04:51 METAR KILG 180951Z AUTO 06005KT 2 1/2SM -SN BR FEW005 OVC014 M01/M02 A3010 RMK
                 AO2 SLP194 P0000 T10111017 =
2019-01-18 04:39 METAR KILG 180939Z AUTO 06006KT 3SM -SN BR FEW005 BKN014 OVC021 M01/M02 A3010
                 RMK AO2 P0000 T10111017 =
2019-01-18 04:13 METAR KILG 180913Z AUTO 06006KT 4SM -SN BR FEW005 OVC022 M01/M02 A3011 RMK AO2
                 P0000 T10111022 =
2019-01-18 04:06 METAR KILG 180906Z AUTO 06006KT 2 1/2SM -SN BR FEW005 OVC024 M01/M02 A3012 RMK
                 AO2 P0000 T10111022 =
2019-01-18 03:51 METAR KILG 180851Z AUTO 06005KT 1 1/2SM -SN BR FEW005 OVC024 M01/M02 A3013 RMK
                 AO2 SNB03 SLP203 P0001 60003 T10111022 58008 =
2019-01-18 03:46 METAR KILG 180846Z AUTO 06005KT 1 1/2SM -SN BR FEW005 OVC024 M01/M02 A3013 RMK
                 AO2 SNB03 P0001 =
2019-01-18 03:39 METAR KILG 180839Z AUTO 06005KT 2SM -SN BR FEW005 OVC024 M01/M02 A3013 RMK AO2
                 SNB03 P0000 T10111022 =
2019-01-18 03:09 METAR KILG 180809Z AUTO 06006KT 4SM -SN BR FEW005 BKN024 OVC042 M01/M02 A3015
                 RMK AO2 SNB03 P0000 T10111022 =
2019-01-18 02:51 METAR KILG 180751Z AUTO 05006KT 5SM BR FEW005 BKN033 OVC042 M01/M02 A3015 RMK
                 AO2 SNE47 SLP211 P0001 T10111022 =
2019-01-18 02:27 METAR KILG 180727Z AUTO 06004KT 3SM -SN BR FEW005 OVC027 M01/M02 A3016 RMK AO2
                 P0001 T10111022 =
2019-01-18 02:17 METAR KILG 180717Z AUTO 07004KT 2 1/2SM -SN BR OVC027 M01/M02 A3016 RMK AO2
                 P0001 T10111022 =
2019-01-18 01:58 METAR KILG 180658Z AUTO 09005KT 1 1/2SM -SN BR OVC028 M01/M02 A3016 RMK AO2
                 P0000 T10111022 =
2019-01-18 01:51 METAR KILG 180651Z AUTO 09005KT 2SM -SN BR OVC028 M01/M02 A3017 RMK AO2
                 UPE0553SNB0553 SLP215 P0001 T10111022 =
2019-01-18 01:39 METAR KILG 180639Z AUTO 08003KT 2 1/2SM -SN BR OVC032 M01/M02 A3017 RMK AO2
                 UPE0553SNB0553 P0001 T10111022 =
2019-01-18 01:29 METAR KILG 180629Z AUTO 07004KT 2SM -SN BR OVC028 M01/M02 A3017 RMK AO2
                 UPE0553SNB0553 P0001 T10111022 =
2019-01-18 01:25 METAR KILG 180625Z AUTO 07003KT 1 3/4SM -SN BR OVC030 M01/M02 A3017 RMK AO2
                 UPE0553SNB0553 P0000 T10111022 =
2019-01-18 01:13 METAR KILG 180613Z AUTO 07005KT 2SM -SN BR OVC030 M01/M03 A3017 RMK AO2
                 UPE0553SNB0553 P0000 T10111028 =
2019-01-18 00:51 METAR KILG 180551Z AUTO 07005KT 7SM UP OVC034 M01/M03 A3018 RMK AO2 UPB45SNE45
                 SLP220 P0001 60002 T10111028 10000 21011 58020 =

Support USWX by starting your Amazon purchase here.